Time,TemperatureF,DewpointF,PressureIn,WindDirection,WindDirectionDegrees,WindSpeedMPH,WindSpeedGustMPH,Humidity,HourlyPrecipIn,Conditions,Clouds,dailyrainin,SoftwareType,DateUTC
2013-04-30 00:00:00,60.8,51.0,30.03,SE,140,1.0,1.0,70,0.00,CLR,,0.00,WeatherDisplay:10.37,2013-04-30 05:00:00,
2013-04-30 00:05:00,60.8,51.0,30.03,SSE,149,0.0,0.0,70,0.00,CLR,,0.00,WeatherDisplay:10.37,2013-04-30 05:05:00,
2013-04-30 00:10:00,60.8,51.0,30.03,SSE,153,0.0,0.0,70,0.00,CLR,,0.00,WeatherDisplay:10.37,2013-04-30 05:10:00,
2013-04-30 00:15:00,60.8,50.9,30.03,SSE,157,0.0,7.0,70,0.00,CLR,,0.00,WeatherDisplay:10.37,2013-04-30 05:15:00,
2013-04-30 00:20:00,60.8,51.0,30.03,South,172,5.0,7.0,70,0.00,CLR,,0.00,WeatherDisplay:10.37,2013-04-30 05:20:00,
2013-04-30 00:25:00,60.8,51.0,30.03,South,171,0.0,8.0,70,0.00,CLR,,0.00,WeatherDisplay:10.37,2013-04-30 05:25:00,
2013-04-30 00:30:00,60.4,50.6,30.03,SSE,157,1.0,2.0,70,0.00,CLR,,0.00,WeatherDisplay:10.37,2013-04-30 05:30:00,
2013-04-30 00:35:00,60.3,50.4,30.03,SSE,150,1.0,0.0,70,0.00,CLR,,0.00,WeatherDisplay:10.37,2013-04-30 05:35:00,
2013-04-30 00:40:00,60.3,50.4,30.03,SSE,154,3.0,6.0,70,0.00,CLR,,0.00,WeatherDisplay:10.37,2013-04-30 05:40:00,
2013-04-30 00:45:00,60.1,50.7,30.03,SE,146,3.0,6.0,71,0.00,CLR,,0.00,WeatherDisplay:10.37,2013-04-30 05:45:00,
2013-04-30 00:55:00,60.1,50.6,30.04,SSE,166,7.0,7.0,71,0.00,CLR,,0.00,WeatherDisplay:10.37,2013-04-30 05:55:00,
2013-04-30 01:00:00,60.1,50.6,30.04,SSE,151,1.0,0.0,71,0.00,CLR,,0.00,WeatherDisplay:10.37,2013-04-30 06:00:00,
2013-04-30 01:05:00,59.7,50.3,30.04,SE,137,0.0,0.0,71,0.00,CLR,,0.00,WeatherDisplay:10.37,2013-04-30 06:05:00,
2013-04-30 01:10:00,59.7,50.7,30.04,SSE,154,0.0,0.0,72,0.00,CLR,,0.00,WeatherDisplay:10.37,2013-04-30 06:10:00,
2013-04-30 01:15:00,59.7,50.7,30.03,SSE,158,1.0,3.0,72,0.00,CLR,,0.00,WeatherDisplay:10.37,2013-04-30 06:15:00,
2013-04-30 01:20:00,59.7,50.7,30.03,SSE,158,1.0,3.0,72,0.00,CLR,,0.00,WeatherDisplay:10.37,2013-04-30 06:20:00,
2013-04-30 01:25:00,59.7,50.7,30.03,SSE,165,1.0,3.0,72,0.00,CLR,,0.00,WeatherDisplay:10.37,2013-04-30 06:25:00,
2013-04-30 01:30:00,59.7,50.7,30.03,South,171,0.0,5.0,72,0.00,CLR,,0.00,WeatherDisplay:10.37,2013-04-30 06:30:00,
2013-04-30 01:35:00,59.7,50.7,30.03,SSE,158,3.0,5.0,72,0.00,CLR,,0.00,WeatherDisplay:10.37,2013-04-30 06:35:00,
2013-04-30 01:40:00,59.2,50.2,30.03,SE,139,3.0,5.0,72,0.00,CLR,,0.00,WeatherDisplay:10.37,2013-04-30 06:40:00,
2013-04-30 01:45:00,59.2,50.2,30.03,SE,134,3.0,4.0,72,0.00,CLR,,0.00,WeatherDisplay:10.37,2013-04-30 06:45:00,
2013-04-30 01:50:00,59.2,50.5,30.03,SSE,150,1.0,3.0,73,0.00,CLR,,0.00,WeatherDisplay:10.37,2013-04-30 06:50:00,
2013-04-30 01:55:00,59.2,50.5,30.03,SSE,149,0.0,8.0,73,0.00,CLR,,0.00,WeatherDisplay:10.37,2013-04-30 06:55:00,
2013-04-30 02:00:00,58.8,50.2,30.03,SSE,161,0.0,8.0,73,0.00,CLR,,0.00,WeatherDisplay:10.37,2013-04-30 07:00:00,
2013-04-30 02:05:00,58.6,50.0,30.03,South,172,2.0,8.0,73,0.00,CLR,,0.00,WeatherDisplay:10.37,2013-04-30 07:05:00,
2013-04-30 02:10:00,58.6,50.4,30.03,SSE,163,6.0,6.0,74,0.00,CLR,,0.00,WeatherDisplay:10.37,2013-04-30 07:10:00,
2013-04-30 02:15:00,58.6,50.4,30.03,SSE,157,8.0,8.0,74,0.00,CLR,,0.00,WeatherDisplay:10.37,2013-04-30 07:15:00,
2013-04-30 02:20:00,58.6,50.0,30.02,SSE,154,3.0,3.0,73,0.00,CLR,,0.00,WeatherDisplay:10.37,2013-04-30 07:20:00,
2013-04-30 02:25:00,58.5,49.8,30.02,SSE,152,2.0,2.0,73,0.00,CLR,,0.00,WeatherDisplay:10.37,2013-04-30 07:25:00,
2013-04-30 02:30:00,58.5,49.8,30.03,SSE,160,7.0,7.0,73,0.00,CLR,,0.00,WeatherDisplay:10.37,2013-04-30 07:30:00,
2013-04-30 02:35:00,58.5,49.8,30.03,SSE,157,1.0,2.0,73,0.00,CLR,,0.00,WeatherDisplay:10.37,2013-04-30 07:35:00,
2013-04-30 02:40:00,58.5,49.8,30.02,SE,145,1.0,1.0,73,0.00,CLR,,0.00,WeatherDisplay:10.37,2013-04-30 07:40:00,
2013-04-30 02:45:00,58.5,49.8,30.02,SE,138,2.0,3.0,73,0.00,CLR,,0.00,WeatherDisplay:10.37,2013-04-30 07:45:00,
2013-04-30 02:50:00,58.5,49.8,30.02,SE,133,7.0,7.0,73,0.00,CLR,,0.00,WeatherDisplay:10.37,2013-04-30 07:50:00,
2013-04-30 02:55:00,58.5,49.8,30.03,SE,144,5.0,7.0,73,0.00,CLR,,0.00,WeatherDisplay:10.37,2013-04-30 07:55:00,
2013-04-30 03:00:00,58.6,50.0,30.03,SSE,155,6.0,6.0,73,0.00,CLR,,0.00,WeatherDisplay:10.37,2013-04-30 08:00:00,
2013-04-30 03:05:00,58.6,49.6,30.03,South,175,7.0,7.0,72,0.00,CLR,,0.00,WeatherDisplay:10.37,2013-04-30 08:05:00,
2013-04-30 03:10:00,58.5,49.5,30.03,SSE,158,10.0,11.0,72,0.00,CLR,,0.00,WeatherDisplay:10.37,2013-04-30 08:10:00,
2013-04-30 03:15:00,58.5,49.5,30.03,SSE,158,5.0,5.0,72,0.00,CLR,,0.00,WeatherDisplay:10.37,2013-04-30 08:15:00,
2013-04-30 03:20:00,58.3,49.3,30.03,SSW,195,6.0,6.0,72,0.00,CLR,,0.00,WeatherDisplay:10.37,2013-04-30 08:20:00,
2013-04-30 03:25:00,58.3,49.3,30.03,South,175,8.0,8.0,72,0.00,CLR,,0.00,WeatherDisplay:10.37,2013-04-30 08:25:00,
2013-04-30 03:30:00,58.1,49.1,30.03,SSE,168,1.0,5.0,72,0.00,CLR,,0.00,WeatherDisplay:10.37,2013-04-30 08:30:00,
2013-04-30 03:35:00,58.1,49.1,30.03,SSE,165,0.0,5.0,72,0.00,CLR,,0.00,WeatherDisplay:10.37,2013-04-30 08:35:00,
2013-04-30 03:40:00,57.9,49.7,30.03,SSE,158,0.0,6.0,74,0.00,CLR,,0.00,WeatherDisplay:10.37,2013-04-30 08:40:00,
2013-04-30 03:45:00,57.6,49.3,30.03,SE,146,7.0,7.0,74,0.00,CLR,,0.00,WeatherDisplay:10.37,2013-04-30 08:45:00,
2013-04-30 03:50:00,57.6,49.3,30.04,SE,136,0.0,7.0,74,0.00,CLR,,0.00,WeatherDisplay:10.37,2013-04-30 08:50:00,
2013-04-30 03:55:00,57.4,49.5,30.04,SE,137,0.0,3.0,75,0.00,CLR,,0.00,WeatherDisplay:10.37,2013-04-30 08:55:00,
2013-04-30 04:00:00,57.4,49.5,30.04,South,178,6.0,7.0,75,0.00,CLR,,0.00,WeatherDisplay:10.37,2013-04-30 09:00:00,
2013-04-30 04:05:00,57.1,49.2,30.04,South,174,0.0,7.0,75,0.00,CLR,,0.00,WeatherDisplay:10.37,2013-04-30 09:05:00,
2013-04-30 04:10:00,57.2,49.7,30.05,SSE,165,2.0,2.0,76,0.00,CLR,,0.00,WeatherDisplay:10.37,2013-04-30 09:10:00,
2013-04-30 04:15:00,57.0,49.5,30.04,SSE,162,3.0,6.0,76,0.00,CLR,,0.00,WeatherDisplay:10.37,2013-04-30 09:15:00,
2013-04-30 04:20:00,57.0,49.5,30.04,SSE,161,0.0,1.0,76,0.00,CLR,,0.00,WeatherDisplay:10.37,2013-04-30 09:20:00,
2013-04-30 04:25:00,57.0,49.5,30.05,SSE,152,0.0,0.0,76,0.00,CLR,,0.00,WeatherDisplay:10.37,2013-04-30 09:25:00,
2013-04-30 04:45:00,56.8,49.7,30.05,SE,129,1.0,2.0,77,0.00,CLR,,0.00,WeatherDisplay:10.37,2013-04-30 09:45:00,
2013-04-30 04:50:00,56.8,49.7,30.03,SE,145,0.0,2.0,77,0.00,CLR,,0.00,WeatherDisplay:10.37,2013-04-30 09:50:00,
2013-04-30 04:55:00,56.8,49.7,30.03,South,169,0.0,2.0,77,0.00,CLR,,0.00,WeatherDisplay:10.37,2013-04-30 09:55:00,
2013-04-30 05:00:00,56.8,49.7,30.03,South,169,1.0,2.0,77,0.00,CLR,,0.00,WeatherDisplay:10.37,2013-04-30 10:00:00,
2013-04-30 05:05:00,56.8,49.7,30.03,SSE,158,0.0,4.0,77,0.00,CLR,,0.00,WeatherDisplay:10.37,2013-04-30 10:05:00,
2013-04-30 05:10:00,57.0,50.2,30.03,South,170,5.0,7.0,78,0.00,CLR,,0.00,WeatherDisplay:10.37,2013-04-30 10:10:00,
2013-04-30 05:15:00,57.0,50.2,30.03,South,180,6.0,6.0,78,0.00,CLR,,0.00,WeatherDisplay:10.37,2013-04-30 10:15:00,
2013-04-30 05:20:00,57.2,50.1,30.03,SSE,158,6.0,7.0,77,0.00,CLR,,0.00,WeatherDisplay:10.37,2013-04-30 10:20:00,
2013-04-30 05:25:00,57.2,50.1,30.03,SSE,156,3.0,7.0,77,0.00,CLR,,0.00,WeatherDisplay:10.37,2013-04-30 10:25:00,
2013-04-30 05:30:00,57.0,49.9,30.03,South,179,9.0,9.0,77,0.00,CLR,,0.00,WeatherDisplay:10.37,2013-04-30 10:30:00,
2013-04-30 05:35:00,57.2,50.1,30.03,South,176,0.0,9.0,77,0.00,CLR,,0.00,WeatherDisplay:10.37,2013-04-30 10:35:00,
2013-04-30 05:40:00,57.0,49.9,30.04,South,174,3.0,5.0,77,0.00,CLR,,0.00,WeatherDisplay:10.37,2013-04-30 10:40:00,
2013-04-30 05:45:00,56.8,49.7,30.04,South,180,5.0,8.0,77,0.00,CLR,,0.00,WeatherDisplay:10.37,2013-04-30 10:45:00,
2013-04-30 05:50:00,56.8,49.7,30.04,South,174,5.0,5.0,77,0.00,CLR,,0.00,WeatherDisplay:10.37,2013-04-30 10:50:00,
2013-04-30 05:55:00,57.0,50.2,30.04,SSE,163,0.0,8.0,78,0.00,CLR,,0.00,WeatherDisplay:10.37,2013-04-30 10:55:00,
2013-04-30 06:00:00,57.0,50.2,30.03,SSE,163,3.0,3.0,78,0.00,CLR,,0.00,WeatherDisplay:10.37,2013-04-30 11:00:00,
2013-04-30 06:05:00,57.0,50.2,30.03,South,173,5.0,7.0,78,0.00,CLR,,0.00,WeatherDisplay:10.37,2013-04-30 11:05:00,
2013-04-30 06:10:00,57.2,50.4,30.04,SSE,165,5.0,5.0,78,0.00,CLR,,0.00,WeatherDisplay:10.37,2013-04-30 11:10:00,
2013-04-30 06:15:00,57.4,50.6,30.04,SE,141,0.0,5.0,78,0.00,CLR,,0.00,WeatherDisplay:10.37,2013-04-30 11:15:00,
2013-04-30 06:20:00,57.4,50.6,30.04,SSE,158,2.0,2.0,78,0.00,CLR,,0.00,WeatherDisplay:10.37,2013-04-30 11:20:00,
2013-04-30 06:25:00,57.4,50.2,30.04,SSE,163,2.0,2.0,77,0.00,CLR,,0.00,WeatherDisplay:10.37,2013-04-30 11:25:00,
2013-04-30 06:30:00,57.5,50.4,30.05,SSE,161,2.0,2.0,77,0.00,CLR,,0.00,WeatherDisplay:10.37,2013-04-30 11:30:00,
2013-04-30 06:35:00,57.6,50.4,30.05,SSE,168,6.0,6.0,77,0.00,CLR,,0.00,WeatherDisplay:10.37,2013-04-30 11:35:00,
2013-04-30 06:40:00,57.9,50.7,30.05,South,169,7.0,7.0,77,0.00,CLR,,0.00,WeatherDisplay:10.37,2013-04-30 11:40:00,
2013-04-30 06:45:00,58.0,50.8,30.05,South,174,7.0,7.0,77,0.00,CLR,,0.00,WeatherDisplay:10.37,2013-04-30 11:45:00,
2013-04-30 06:50:00,58.1,50.6,30.05,SSE,163,5.0,6.0,76,0.00,CLR,,0.00,WeatherDisplay:10.37,2013-04-30 11:50:00,
2013-04-30 06:55:00,58.5,50.9,30.05,South,169,7.0,8.0,76,0.00,CLR,,0.00,WeatherDisplay:10.37,2013-04-30 11:55:00,
2013-04-30 07:00:00,58.6,50.7,30.06,SSE,161,7.0,7.0,75,0.00,CLR,,0.00,WeatherDisplay:10.37,2013-04-30 12:00:00,
2013-04-30 07:05:00,59.0,51.0,30.06,SSE,156,2.0,2.0,75,0.00,CLR,,0.00,WeatherDisplay:10.37,2013-04-30 12:05:00,
2013-04-30 07:10:00,59.2,51.3,30.06,SSE,167,1.0,2.0,75,0.00,CLR,,0.00,WeatherDisplay:10.37,2013-04-30 12:10:00,
2013-04-30 07:15:00,59.7,51.4,30.06,South,170,6.0,6.0,74,0.00,CLR,,0.00,WeatherDisplay:10.37,2013-04-30 12:15:00,
2013-04-30 07:20:00,60.3,51.6,30.06,SSE,161,1.0,2.0,73,0.00,CLR,,0.00,WeatherDisplay:10.37,2013-04-30 12:20:00,
2013-04-30 07:25:00,60.4,51.4,30.06,SSE,159,3.0,3.0,72,0.00,CLR,,0.00,WeatherDisplay:10.37,2013-04-30 12:25:00,
2013-04-30 07:30:00,60.4,51.0,30.06,South,186,8.0,8.0,71,0.00,CLR,,0.00,WeatherDisplay:10.37,2013-04-30 12:30:00,
2013-04-30 07:35:00,61.0,51.5,30.06,South,181,7.0,9.0,71,0.00,CLR,,0.00,WeatherDisplay:10.37,2013-04-30 12:35:00,
2013-04-30 07:40:00,61.2,51.7,30.06,South,173,6.0,9.0,71,0.00,CLR,,0.00,WeatherDisplay:10.37,2013-04-30 12:40:00,
2013-04-30 07:45:00,61.5,52.0,30.06,SSE,164,1.0,7.0,71,0.00,CLR,,0.00,WeatherDisplay:10.37,2013-04-30 12:45:00,
2013-04-30 07:50:00,62.2,51.9,30.06,SSE,168,13.0,14.0,69,0.00,CLR,,0.00,WeatherDisplay:10.37,2013-04-30 12:50:00,
2013-04-30 07:55:00,62.6,51.9,30.06,South,188,7.0,14.0,68,0.00,CLR,,0.00,WeatherDisplay:10.37,2013-04-30 12:55:00,
2013-04-30 08:05:00,63.9,52.3,30.06,SSW,196,6.0,8.0,66,0.00,CLR,,0.00,WeatherDisplay:10.37,2013-04-30 13:05:00,
2013-04-30 08:10:00,64.8,52.7,30.06,SSW,193,12.0,12.0,65,0.00,CLR,,0.00,WeatherDisplay:10.37,2013-04-30 13:10:00,
2013-04-30 08:15:00,64.9,52.5,30.06,South,188,5.0,9.0,64,0.00,CLR,,0.00,WeatherDisplay:10.37,2013-04-30 13:15:00,
2013-04-30 08:20:00,64.9,52.5,30.06,South,170,6.0,9.0,64,0.00,CLR,,0.00,WeatherDisplay:10.37,2013-04-30 13:20:00,
2013-04-30 08:25:00,64.9,52.0,30.06,SSE,159,6.0,8.0,63,0.00,CLR,,0.00,WeatherDisplay:10.37,2013-04-30 13:25:00,
2013-04-30 08:30:00,64.8,51.9,30.06,South,183,9.0,9.0,63,0.00,CLR,,0.00,WeatherDisplay:10.37,2013-04-30 13:30:00,
2013-04-30 08:35:00,64.8,51.9,30.06,South,186,3.0,10.0,63,0.00,CLR,,0.00,WeatherDisplay:10.37,2013-04-30 13:35:00,
2013-04-30 08:40:00,64.9,52.5,30.06,South,183,7.0,11.0,64,0.00,CLR,,0.00,WeatherDisplay:10.37,2013-04-30 13:40:00,
2013-04-30 08:45:00,65.1,52.6,30.06,SSE,165,7.0,8.0,64,0.00,CLR,,0.00,WeatherDisplay:10.37,2013-04-30 13:45:00,
2013-04-30 08:50:00,65.7,52.7,30.06,SSE,155,3.0,6.0,63,0.00,CLR,,0.00,WeatherDisplay:10.37,2013-04-30 13:50:00,
2013-04-30 08:55:00,66.4,53.0,30.06,South,182,5.0,6.0,62,0.00,CLR,,0.00,WeatherDisplay:10.37,2013-04-30 13:55:00,
2013-04-30 09:00:00,67.6,53.2,30.06,South,181,8.0,8.0,60,0.00,CLR,,0.00,WeatherDisplay:10.37,2013-04-30 14:00:00,
2013-04-30 09:05:00,67.6,53.3,30.07,South,187,3.0,5.0,60,0.00,CLR,,0.00,WeatherDisplay:10.37,2013-04-30 14:05:00,
2013-04-30 09:10:00,68.5,53.6,30.07,South,189,6.0,7.0,59,0.00,CLR,,0.00,WeatherDisplay:10.37,2013-04-30 14:10:00,
2013-04-30 09:15:00,68.7,53.3,30.06,SSW,197,7.0,7.0,58,0.00,CLR,,0.00,WeatherDisplay:10.37,2013-04-30 14:15:00,
2013-04-30 09:20:00,69.3,52.9,30.06,South,181,8.0,8.0,56,0.00,CLR,,0.00,WeatherDisplay:10.37,2013-04-30 14:20:00,
2013-04-30 09:25:00,69.3,52.9,30.06,South,182,9.0,10.0,56,0.00,CLR,,0.00,WeatherDisplay:10.37,2013-04-30 14:25:00,
2013-04-30 09:30:00,70.1,53.7,30.06,South,185,2.0,8.0,56,0.00,CLR,,0.00,WeatherDisplay:10.37,2013-04-30 14:30:00,
2013-04-30 09:35:00,71.0,54.5,30.06,South,184,2.0,8.0,56,0.00,CLR,,0.00,WeatherDisplay:10.37,2013-04-30 14:35:00,
2013-04-30 09:40:00,71.2,53.2,30.06,South,187,9.0,9.0,53,0.00,CLR,,0.00,WeatherDisplay:10.37,2013-04-30 14:40:00,
2013-04-30 09:45:00,71.2,53.2,30.06,South,176,7.0,8.0,53,0.00,CLR,,0.00,WeatherDisplay:10.37,2013-04-30 14:45:00,
2013-04-30 09:55:00,71.1,53.1,30.06,South,190,8.0,8.0,53,0.00,CLR,,0.00,WeatherDisplay:10.37,2013-04-30 14:55:00,
2013-04-30 10:00:00,71.2,53.2,30.06,South,189,7.0,12.0,53,0.00,CLR,,0.00,WeatherDisplay:10.37,2013-04-30 15:00:00,
2013-04-30 10:05:00,71.8,53.7,30.06,South,176,6.0,7.0,53,0.00,CLR,,0.00,WeatherDisplay:10.37,2013-04-30 15:05:00,
2013-04-30 10:10:00,71.8,53.7,30.06,South,184,6.0,7.0,53,0.00,CLR,,0.00,WeatherDisplay:10.37,2013-04-30 15:10:00,
2013-04-30 10:15:00,72.3,54.7,30.06,SSW,201,7.0,8.0,54,0.00,CLR,,0.00,WeatherDisplay:10.37,2013-04-30 15:15:00,
2013-04-30 10:20:00,72.9,55.2,30.06,SSW,195,8.0,8.0,54,0.00,CLR,,0.00,WeatherDisplay:10.37,2013-04-30 15:20:00,
2013-04-30 10:25:00,73.0,55.4,30.06,SSW,198,8.0,8.0,54,0.00,CLR,,0.00,WeatherDisplay:10.37,2013-04-30 15:25:00,
2013-04-30 10:30:00,73.2,55.1,30.07,South,191,8.0,9.0,53,0.00,CLR,,0.00,WeatherDisplay:10.37,2013-04-30 15:30:00,
2013-04-30 10:35:00,73.2,54.5,30.07,South,181,3.0,4.0,52,0.00,CLR,,0.00,WeatherDisplay:10.37,2013-04-30 15:35:00,
2013-04-30 10:40:00,73.2,54.5,30.06,SSE,167,6.0,6.0,52,0.00,CLR,,0.00,WeatherDisplay:10.37,2013-04-30 15:40:00,
2013-04-30 10:45:00,73.6,54.9,30.07,South,185,8.0,10.0,52,0.00,CLR,,0.00,WeatherDisplay:10.37,2013-04-30 15:45:00,
2013-04-30 10:50:00,73.4,54.7,30.07,South,191,5.0,8.0,52,0.00,CLR,,0.00,WeatherDisplay:10.37,2013-04-30 15:50:00,
2013-04-30 10:55:00,73.6,54.9,30.06,South,188,3.0,7.0,52,0.00,CLR,,0.00,WeatherDisplay:10.37,2013-04-30 15:55:00,
2013-04-30 11:00:00,73.8,54.5,30.06,South,188,8.0,10.0,51,0.00,CLR,,0.00,WeatherDisplay:10.37,2013-04-30 16:00:00,
2013-04-30 11:05:00,73.8,54.5,30.06,South,180,10.0,10.0,51,0.00,CLR,,0.00,WeatherDisplay:10.37,2013-04-30 16:05:00,
2013-04-30 11:10:00,74.1,54.8,30.06,South,182,3.0,6.0,51,0.00,CLR,,0.00,WeatherDisplay:10.37,2013-04-30 16:10:00,
2013-04-30 11:15:00,74.1,54.8,30.06,South,179,1.0,6.0,51,0.00,CLR,,0.00,WeatherDisplay:10.37,2013-04-30 16:15:00,
2013-04-30 11:20:00,74.5,55.2,30.06,South,177,3.0,11.0,51,0.00,CLR,,0.00,WeatherDisplay:10.37,2013-04-30 16:20:00,
2013-04-30 11:25:00,74.8,54.9,30.06,South,182,2.0,6.0,50,0.00,CLR,,0.00,WeatherDisplay:10.37,2013-04-30 16:25:00,
2013-04-30 11:30:00,75.0,55.1,30.06,South,184,3.0,5.0,50,0.00,CLR,,0.00,WeatherDisplay:10.37,2013-04-30 16:30:00,
2013-04-30 11:35:00,75.2,55.3,30.06,South,180,5.0,6.0,50,0.00,CLR,,0.00,WeatherDisplay:10.37,2013-04-30 16:35:00,
2013-04-30 11:40:00,75.4,54.9,30.06,South,173,6.0,6.0,49,0.00,CLR,,0.00,WeatherDisplay:10.37,2013-04-30 16:40:00,
2013-04-30 11:45:00,75.6,55.1,30.06,SSW,201,3.0,3.0,49,0.00,CLR,,0.00,WeatherDisplay:10.37,2013-04-30 16:45:00,
2013-04-30 11:50:00,75.9,55.4,30.06,SW,221,6.0,7.0,49,0.00,CLR,,0.00,WeatherDisplay:10.37,2013-04-30 16:50:00,
2013-04-30 11:55:00,75.9,55.4,30.06,South,174,6.0,6.0,49,0.00,CLR,,0.00,WeatherDisplay:10.37,2013-04-30 16:55:00,
2013-04-30 12:00:00,76.7,55.5,30.06,SSE,164,5.0,9.0,48,0.00,CLR,,0.00,WeatherDisplay:10.37,2013-04-30 17:00:00,
2013-04-30 12:05:00,77.0,55.8,30.06,SSE,160,0.0,9.0,48,0.00,CLR,,0.00,WeatherDisplay:10.37,2013-04-30 17:05:00,
2013-04-30 12:10:00,77.5,55.7,30.06,SSE,158,9.0,9.0,47,0.00,CLR,,0.00,WeatherDisplay:10.37,2013-04-30 17:10:00,
2013-04-30 12:15:00,76.8,54.5,30.06,SSE,152,12.0,12.0,46,0.00,CLR,,0.00,WeatherDisplay:10.37,2013-04-30 17:15:00,
2013-04-30 12:20:00,77.0,55.2,30.06,SSE,162,7.0,9.0,47,0.00,CLR,,0.00,WeatherDisplay:10.37,2013-04-30 17:20:00,
2013-04-30 12:25:00,78.2,56.3,30.06,South,188,7.0,9.0,47,0.00,CLR,,0.00,WeatherDisplay:10.37,2013-04-30 17:25:00,
2013-04-30 12:30:00,78.4,56.5,30.06,South,172,6.0,9.0,47,0.00,CLR,,0.00,WeatherDisplay:10.37,2013-04-30 17:30:00,
2013-04-30 12:35:00,79.5,56.3,30.06,SSE,157,2.0,8.0,45,0.00,CLR,,0.00,WeatherDisplay:10.37,2013-04-30 17:35:00,
2013-04-30 12:40:00,79.5,56.3,30.06,SSE,161,0.0,2.0,45,0.00,CLR,,0.00,WeatherDisplay:10.37,2013-04-30 17:40:00,
2013-04-30 12:45:00,80.8,56.2,30.06,South,170,7.0,7.0,43,0.00,CLR,,0.00,WeatherDisplay:10.37,2013-04-30 17:45:00,
2013-04-30 12:50:00,81.3,56.0,30.05,South,171,13.0,15.0,42,0.00,CLR,,0.00,WeatherDisplay:10.37,2013-04-30 17:50:00,
2013-04-30 12:55:00,81.9,55.2,30.06,South,184,8.0,8.0,40,0.00,CLR,,0.00,WeatherDisplay:10.37,2013-04-30 17:55:00,
2013-04-30 13:00:00,82.7,55.9,30.05,South,185,9.0,9.0,40,0.00,CLR,,0.00,WeatherDisplay:10.37,2013-04-30 18:00:00,
2013-04-30 13:05:00,83.1,55.6,30.06,SSE,164,7.0,7.0,39,0.00,CLR,,0.00,WeatherDisplay:10.37,2013-04-30 18:05:00,
2013-04-30 13:10:00,83.3,55.8,30.05,SSE,161,8.0,9.0,39,0.00,CLR,,0.00,WeatherDisplay:10.37,2013-04-30 18:10:00,
2013-04-30 13:15:00,83.8,54.8,30.05,SSE,162,9.0,9.0,37,0.00,CLR,,0.00,WeatherDisplay:10.37,2013-04-30 18:15:00,
2013-04-30 13:20:00,84.9,55.7,30.05,SSE,161,2.0,8.0,37,0.00,CLR,,0.00,WeatherDisplay:10.37,2013-04-30 18:20:00,
2013-04-30 13:25:00,85.1,54.4,30.05,South,170,9.0,12.0,35,0.00,CLR,,0.00,WeatherDisplay:10.37,2013-04-30 18:25:00,
2013-04-30 13:30:00,85.2,55.2,30.05,South,181,5.0,12.0,36,0.00,CLR,,0.00,WeatherDisplay:10.37,2013-04-30 18:30:00,
2013-04-30 13:35:00,85.2,54.5,30.05,SSW,207,7.0,12.0,35,0.00,CLR,,0.00,WeatherDisplay:10.37,2013-04-30 18:35:00,
2013-04-30 13:40:00,85.6,54.8,30.05,SSW,196,5.0,12.0,35,0.00,CLR,,0.00,WeatherDisplay:10.37,2013-04-30 18:40:00,
2013-04-30 13:50:00,86.5,55.6,30.05,South,177,9.0,11.0,35,0.00,CLR,,0.00,WeatherDisplay:10.37,2013-04-30 18:50:00,
2013-04-30 13:55:00,86.7,55.0,30.04,South,169,6.0,11.0,34,0.00,CLR,,0.00,WeatherDisplay:10.37,2013-04-30 18:55:00,
2013-04-30 14:00:00,86.9,55.1,30.04,South,186,7.0,10.0,34,0.00,CLR,,0.00,WeatherDisplay:10.37,2013-04-30 19:00:00,
2013-04-30 14:05:00,86.9,55.2,30.05,South,190,9.0,10.0,34,0.00,CLR,,0.00,WeatherDisplay:10.37,2013-04-30 19:05:00,
2013-04-30 14:10:00,87.3,55.5,30.05,South,186,8.0,8.0,34,0.00,CLR,,0.00,WeatherDisplay:10.37,2013-04-30 19:10:00,
2013-04-30 14:15:00,87.5,53.2,30.04,South,189,7.0,8.0,31,0.00,CLR,,0.00,WeatherDisplay:10.37,2013-04-30 19:15:00,
2013-04-30 14:20:00,87.7,55.1,30.04,South,188,5.0,6.0,33,0.00,CLR,,0.00,WeatherDisplay:10.37,2013-04-30 19:20:00,
2013-04-30 14:25:00,88.2,53.7,30.05,SSW,200,7.0,8.0,31,0.00,CLR,,0.00,WeatherDisplay:10.37,2013-04-30 19:25:00,
2013-04-30 14:30:00,88.4,54.0,30.05,South,178,9.0,11.0,31,0.00,CLR,,0.00,WeatherDisplay:10.37,2013-04-30 19:30:00,
2013-04-30 14:35:00,88.7,55.1,30.04,SSE,159,8.0,9.0,32,0.00,CLR,,0.00,WeatherDisplay:10.37,2013-04-30 19:35:00,
2013-04-30 14:40:00,89.1,54.5,30.04,SSE,167,0.0,9.0,31,0.00,CLR,,0.00,WeatherDisplay:10.37,2013-04-30 19:40:00,
2013-04-30 14:45:00,89.3,54.7,30.04,South,180,8.0,8.0,31,0.00,CLR,,0.00,WeatherDisplay:10.37,2013-04-30 19:45:00,
2013-04-30 14:50:00,89.1,53.6,30.04,South,170,10.0,20.0,30,0.00,CLR,,0.00,WeatherDisplay:10.37,2013-04-30 19:50:00,
2013-04-30 14:55:00,89.1,53.6,30.04,SSE,167,7.0,7.0,30,0.00,CLR,,0.00,WeatherDisplay:10.37,2013-04-30 19:55:00,
2013-04-30 15:00:00,89.2,54.6,30.04,SSE,168,1.0,11.0,31,0.00,CLR,,0.00,WeatherDisplay:10.37,2013-04-30 20:00:00,
2013-04-30 15:05:00,89.4,53.0,30.04,South,169,3.0,11.0,29,0.00,CLR,,0.00,WeatherDisplay:10.37,2013-04-30 20:05:00,
2013-04-30 15:10:00,89.8,52.3,30.04,South,190,5.0,5.0,28,0.00,CLR,,0.00,WeatherDisplay:10.37,2013-04-30 20:10:00,
2013-04-30 15:15:00,90.3,53.7,30.04,SW,214,6.0,7.0,29,0.00,CLR,,0.00,WeatherDisplay:10.37,2013-04-30 20:15:00,
2013-04-30 15:20:00,90.3,52.8,30.04,SW,216,9.0,10.0,28,0.00,CLR,,0.00,WeatherDisplay:10.37,2013-04-30 20:20:00,
2013-04-30 15:25:00,90.1,52.6,30.04,WSW,238,6.0,7.0,28,0.00,CLR,,0.00,WeatherDisplay:10.37,2013-04-30 20:25:00,
2013-04-30 15:30:00,90.0,52.5,30.04,WSW,248,7.0,7.0,28,0.00,CLR,,0.00,WeatherDisplay:10.37,2013-04-30 20:30:00,
2013-04-30 15:35:00,90.0,53.4,30.04,WSW,248,3.0,7.0,29,0.00,CLR,,0.00,WeatherDisplay:10.37,2013-04-30 20:35:00,
2013-04-30 15:40:00,90.9,52.3,30.04,WSW,248,8.0,8.0,27,0.00,CLR,,0.00,WeatherDisplay:10.37,2013-04-30 20:40:00,
2013-04-30 15:45:00,91.0,53.4,30.04,WSW,248,9.0,12.0,28,0.00,CLR,,0.00,WeatherDisplay:10.37,2013-04-30 20:45:00,
2013-04-30 15:50:00,91.0,51.3,30.04,WSW,248,2.0,9.0,26,0.00,CLR,,0.00,WeatherDisplay:10.37,2013-04-30 20:50:00,
2013-04-30 15:55:00,90.5,49.9,30.04,WSW,248,9.0,9.0,25,0.00,CLR,,0.00,WeatherDisplay:10.37,2013-04-30 20:55:00,
2013-04-30 16:00:00,90.5,52.0,30.04,WSW,248,6.0,9.0,27,0.00,CLR,,0.00,WeatherDisplay:10.37,2013-04-30 21:00:00,
2013-04-30 16:05:00,90.9,52.3,30.04,WSW,248,10.0,13.0,27,0.00,CLR,,0.00,WeatherDisplay:10.37,2013-04-30 21:05:00,
2013-04-30 16:10:00,91.1,52.5,30.03,WSW,248,1.0,8.0,27,0.00,CLR,,0.00,WeatherDisplay:10.37,2013-04-30 21:10:00,
2013-04-30 16:15:00,91.6,50.8,30.03,WSW,248,2.0,6.0,25,0.00,CLR,,0.00,WeatherDisplay:10.37,2013-04-30 21:15:00,
2013-04-30 16:20:00,91.8,50.9,30.04,WSW,248,1.0,6.0,25,0.00,CLR,,0.00,WeatherDisplay:10.37,2013-04-30 21:20:00,
2013-04-30 16:25:00,91.8,51.0,30.04,WSW,248,2.0,3.0,25,0.00,CLR,,0.00,WeatherDisplay:10.37,2013-04-30 21:25:00,
2013-04-30 16:30:00,92.1,51.2,30.04,WSW,248,7.0,8.0,25,0.00,CLR,,0.00,WeatherDisplay:10.37,2013-04-30 21:30:00,
2013-04-30 16:35:00,91.8,50.9,30.04,WSW,248,8.0,11.0,25,0.00,CLR,,0.00,WeatherDisplay:10.37,2013-04-30 21:35:00,
2013-04-30 16:40:00,91.5,50.7,30.04,WSW,248,5.0,8.0,25,0.00,CLR,,0.00,WeatherDisplay:10.37,2013-04-30 21:40:00,
2013-04-30 16:45:00,91.6,49.7,30.04,WSW,248,5.0,6.0,24,0.00,CLR,,0.00,WeatherDisplay:10.37,2013-04-30 21:45:00,
2013-04-30 16:50:00,91.8,50.9,30.04,WSW,248,2.0,6.0,25,0.00,CLR,,0.00,WeatherDisplay:10.37,2013-04-30 21:50:00,
2013-04-30 16:55:00,91.7,49.8,30.05,WSW,248,5.0,7.0,24,0.00,CLR,,0.00,WeatherDisplay:10.37,2013-04-30 21:55:00,
2013-04-30 17:00:00,91.0,50.3,30.05,WSW,248,3.0,6.0,25,0.00,CLR,,0.00,WeatherDisplay:10.37,2013-04-30 22:00:00,
2013-04-30 17:05:00,90.7,48.9,30.05,WSW,248,2.0,6.0,24,0.00,CLR,,0.00,WeatherDisplay:10.37,2013-04-30 22:05:00,
2013-04-30 17:10:00,90.7,48.9,30.05,WSW,239,3.0,5.0,24,0.00,CLR,,0.00,WeatherDisplay:10.37,2013-04-30 22:10:00,
2013-04-30 17:15:00,90.3,48.6,30.05,SSW,212,3.0,4.0,24,0.00,CLR,,0.00,WeatherDisplay:10.37,2013-04-30 22:15:00,
2013-04-30 17:20:00,89.4,49.0,30.05,South,190,0.0,7.0,25,0.00,CLR,,0.00,WeatherDisplay:10.37,2013-04-30 22:20:00,
2013-04-30 17:25:00,88.9,49.6,30.06,South,191,7.0,8.0,26,0.00,CLR,,0.00,WeatherDisplay:10.37,2013-04-30 22:25:00,
2013-04-30 17:30:00,89.1,50.7,30.06,SSW,195,5.0,9.0,27,0.00,CLR,,0.00,WeatherDisplay:10.37,2013-04-30 22:30:00,
2013-04-30 17:35:00,88.5,49.3,30.05,SSW,204,6.0,12.0,26,0.00,CLR,,0.00,WeatherDisplay:10.37,2013-04-30 22:35:00,
2013-04-30 17:40:00,88.5,49.2,30.06,SSW,193,5.0,6.0,26,0.00,CLR,,0.00,WeatherDisplay:10.37,2013-04-30 22:40:00,
2013-04-30 17:45:00,88.2,50.0,30.06,South,179,1.0,8.0,27,0.00,CLR,,0.00,WeatherDisplay:10.37,2013-04-30 22:45:00,
2013-04-30 17:50:00,87.1,49.0,30.06,SSW,211,12.0,12.0,27,0.00,CLR,,0.00,WeatherDisplay:10.37,2013-04-30 22:50:00,
2013-04-30 18:05:00,87.1,49.0,30.07,WSW,248,6.0,9.0,27,0.00,CLR,,0.00,WeatherDisplay:10.37,2013-04-30 23:05:00,
2013-04-30 18:10:00,86.7,49.7,30.06,SSW,203,0.0,9.0,28,0.00,CLR,,0.00,WeatherDisplay:10.37,2013-04-30 23:10:00,
2013-04-30 18:15:00,86.0,50.0,30.07,South,176,7.0,7.0,29,0.00,CLR,,0.00,WeatherDisplay:10.37,2013-04-30 23:15:00,
2013-04-30 18:20:00,85.4,50.5,30.07,SSE,167,3.0,7.0,30,0.00,CLR,,0.00,WeatherDisplay:10.37,2013-04-30 23:20:00,
2013-04-30 18:30:00,84.9,48.2,30.07,South,171,6.0,8.0,28,0.00,CLR,,0.00,WeatherDisplay:10.37,2013-04-30 23:30:00,
2013-04-30 18:35:00,83.5,48.8,30.07,South,170,1.0,7.0,30,0.00,CLR,,0.00,WeatherDisplay:10.37,2013-04-30 23:35:00,
2013-04-30 18:40:00,82.4,49.6,30.07,South,179,5.0,6.0,32,0.00,CLR,,0.00,WeatherDisplay:10.37,2013-04-30 23:40:00,
2013-04-30 18:45:00,81.1,49.3,30.07,SSW,192,2.0,9.0,33,0.00,CLR,,0.00,WeatherDisplay:10.37,2013-04-30 23:45:00,
2013-04-30 18:50:00,80.6,49.6,30.07,South,176,2.0,9.0,34,0.00,CLR,,0.00,WeatherDisplay:10.37,2013-04-30 23:50:00,
2013-04-30 19:00:00,79.5,50.2,30.07,South,177,7.0,8.0,36,0.00,CLR,,0.00,WeatherDisplay:10.37,2013-05-01 00:00:00,
2013-04-30 19:05:00,79.1,50.6,30.08,SSE,164,2.0,8.0,37,0.00,CLR,,0.00,WeatherDisplay:10.37,2013-05-01 00:05:00,
2013-04-30 19:10:00,78.8,50.3,30.07,SSE,167,3.0,6.0,37,0.00,CLR,,0.00,WeatherDisplay:10.37,2013-05-01 00:10:00,
2013-04-30 19:15:00,78.3,50.6,30.08,South,185,5.0,10.0,38,0.00,CLR,,0.00,WeatherDisplay:10.37,2013-05-01 00:15:00,
2013-04-30 19:20:00,77.8,50.9,30.08,SSW,194,0.0,8.0,39,0.00,CLR,,0.00,WeatherDisplay:10.37,2013-05-01 00:20:00,
2013-04-30 19:25:00,77.5,51.2,30.08,South,191,0.0,2.0,40,0.00,CLR,,0.00,WeatherDisplay:10.37,2013-05-01 00:25:00,
2013-04-30 19:35:00,76.4,51.6,30.09,SSE,163,2.0,4.0,42,0.00,CLR,,0.00,WeatherDisplay:10.37,2013-05-01 00:35:00,
2013-04-30 19:50:00,75.2,53.0,30.09,SSE,163,2.0,7.0,46,0.00,CLR,,0.00,WeatherDisplay:10.37,2013-05-01 00:50:00,
2013-04-30 20:00:00,74.5,52.9,30.09,SSE,166,0.0,4.0,47,0.00,CLR,,0.00,WeatherDisplay:10.37,2013-05-01 01:00:00,
2013-04-30 20:05:00,74.1,52.6,30.09,South,172,1.0,2.0,47,0.00,CLR,,0.00,WeatherDisplay:10.37,2013-05-01 01:05:00,
2013-04-30 20:10:00,73.8,53.4,30.09,South,177,0.0,0.0,49,0.00,CLR,,0.00,WeatherDisplay:10.37,2013-05-01 01:10:00,
2013-04-30 20:15:00,73.6,53.8,30.09,SSE,159,1.0,7.0,50,0.00,CLR,,0.00,WeatherDisplay:10.37,2013-05-01 01:15:00,
2013-04-30 20:20:00,73.1,53.4,30.09,SSE,164,0.0,0.0,50,0.00,CLR,,0.00,WeatherDisplay:10.37,2013-05-01 01:20:00,
2013-04-30 20:25:00,72.9,53.7,30.10,South,180,0.0,0.0,51,0.00,CLR,,0.00,WeatherDisplay:10.37,2013-05-01 01:25:00,
2013-04-30 20:30:00,72.9,54.2,30.10,South,176,0.0,0.0,52,0.00,CLR,,0.00,WeatherDisplay:10.37,2013-05-01 01:30:00,
2013-04-30 20:35:00,72.5,53.9,30.10,South,183,0.0,0.0,52,0.00,CLR,,0.00,WeatherDisplay:10.37,2013-05-01 01:35:00,
2013-04-30 20:40:00,72.5,54.4,30.10,South,173,2.0,2.0,53,0.00,CLR,,0.00,WeatherDisplay:10.37,2013-05-01 01:40:00,
2013-04-30 20:45:00,72.1,54.6,30.10,South,173,0.0,0.0,54,0.00,CLR,,0.00,WeatherDisplay:10.37,2013-05-01 01:45:00,
2013-04-30 20:50:00,71.9,54.3,30.11,South,175,0.0,0.0,54,0.00,CLR,,0.00,WeatherDisplay:10.37,2013-05-01 01:50:00,
2013-04-30 20:55:00,71.3,54.3,30.11,South,175,1.0,2.0,55,0.00,CLR,,0.00,WeatherDisplay:10.37,2013-05-01 01:55:00,
2013-04-30 21:00:00,71.2,54.7,30.11,South,191,1.0,2.0,56,0.00,CLR,,0.00,WeatherDisplay:10.37,2013-05-01 02:00:00,
2013-04-30 21:05:00,70.8,54.8,30.11,South,188,0.0,2.0,57,0.00,CLR,,0.00,WeatherDisplay:10.37,2013-05-01 02:05:00,
2013-04-30 21:10:00,70.5,54.5,30.12,South,182,0.0,0.0,57,0.00,CLR,,0.00,WeatherDisplay:10.37,2013-05-01 02:10:00,
2013-04-30 21:15:00,70.2,55.2,30.12,South,179,0.0,2.0,59,0.00,CLR,,0.00,WeatherDisplay:10.37,2013-05-01 02:15:00,
2013-04-30 21:20:00,70.0,55.5,30.12,SSE,160,0.0,0.0,60,0.00,CLR,,0.00,WeatherDisplay:10.37,2013-05-01 02:20:00,
2013-04-30 21:25:00,69.8,55.3,30.12,SSE,153,0.0,0.0,60,0.00,CLR,,0.00,WeatherDisplay:10.37,2013-05-01 02:25:00,
2013-04-30 21:30:00,69.4,54.9,30.12,SSE,163,0.0,0.0,60,0.00,CLR,,0.00,WeatherDisplay:10.37,2013-05-01 02:30:00,
2013-04-30 21:35:00,69.1,55.1,30.12,SSE,167,0.0,0.0,61,0.00,CLR,,0.00,WeatherDisplay:10.37,2013-05-01 02:35:00,
2013-04-30 21:40:00,68.9,55.3,30.13,South,171,0.0,0.0,62,0.00,CLR,,0.00,WeatherDisplay:10.37,2013-05-01 02:40:00,
2013-04-30 21:45:00,68.7,55.6,30.13,South,179,0.0,0.0,63,0.00,CLR,,0.00,WeatherDisplay:10.37,2013-05-01 02:45:00,
2013-04-30 21:50:00,68.5,55.9,30.13,South,180,0.0,0.0,64,0.00,CLR,,0.00,WeatherDisplay:10.37,2013-05-01 02:50:00,
2013-04-30 21:55:00,68.4,56.1,30.13,South,180,0.0,0.0,65,0.00,CLR,,0.00,WeatherDisplay:10.37,2013-05-01 02:55:00,
2013-04-30 22:00:00,68.2,56.0,30.12,South,180,0.0,0.0,65,0.00,CLR,,0.00,WeatherDisplay:10.37,2013-05-01 03:00:00,
2013-04-30 22:05:00,67.7,55.9,30.13,South,180,0.0,0.0,66,0.00,CLR,,0.00,WeatherDisplay:10.37,2013-05-01 03:05:00,
2013-04-30 22:10:00,67.5,55.7,30.12,South,180,0.0,0.0,66,0.00,CLR,,0.00,WeatherDisplay:10.37,2013-05-01 03:10:00,
2013-04-30 22:15:00,67.1,55.8,30.13,South,180,0.0,0.0,67,0.00,CLR,,0.00,WeatherDisplay:10.37,2013-05-01 03:15:00,
2013-04-30 22:20:00,67.0,56.1,30.13,South,180,0.0,0.0,68,0.00,CLR,,0.00,WeatherDisplay:10.37,2013-05-01 03:20:00,
2013-04-30 22:25:00,66.6,55.7,30.12,South,180,0.0,0.0,68,0.00,CLR,,0.00,WeatherDisplay:10.37,2013-05-01 03:25:00,
2013-04-30 22:30:00,66.0,55.2,30.13,South,180,0.0,0.0,68,0.00,CLR,,0.00,WeatherDisplay:10.37,2013-05-01 03:30:00,
2013-04-30 22:35:00,65.7,55.2,30.13,South,180,0.0,0.0,69,0.00,CLR,,0.00,WeatherDisplay:10.37,2013-05-01 03:35:00,
2013-04-30 22:40:00,65.1,55.1,30.13,South,180,0.0,0.0,70,0.00,CLR,,0.00,WeatherDisplay:10.37,2013-05-01 03:40:00,
2013-04-30 22:45:00,65.1,55.5,30.14,South,180,0.0,0.0,71,0.00,CLR,,0.00,WeatherDisplay:10.37,2013-05-01 03:45:00,
2013-04-30 22:50:00,64.8,55.5,30.14,South,180,0.0,0.0,72,0.00,CLR,,0.00,WeatherDisplay:10.37,2013-05-01 03:50:00,
2013-04-30 22:55:00,64.9,56.1,30.14,South,180,0.0,0.0,73,0.00,CLR,,0.00,WeatherDisplay:10.37,2013-05-01 03:55:00,
2013-04-30 23:00:00,65.1,56.6,30.14,SSE,167,0.0,0.0,74,0.00,CLR,,0.00,WeatherDisplay:10.37,2013-05-01 04:00:00,
2013-04-30 23:05:00,65.1,56.2,30.14,SSE,158,0.0,0.0,73,0.00,CLR,,0.00,WeatherDisplay:10.37,2013-05-01 04:05:00,
2013-04-30 23:10:00,64.8,55.9,30.14,SSE,158,0.0,0.0,73,0.00,CLR,,0.00,WeatherDisplay:10.37,2013-05-01 04:10:00,
2013-04-30 23:15:00,64.8,56.3,30.14,SSE,164,0.0,0.0,74,0.00,CLR,,0.00,WeatherDisplay:10.37,2013-05-01 04:15:00,
2013-04-30 23:20:00,65.1,56.6,30.14,SSE,157,0.0,0.0,74,0.00,CLR,,0.00,WeatherDisplay:10.37,2013-05-01 04:20:00,
2013-04-30 23:25:00,65.1,56.2,30.14,SSE,154,0.0,0.0,73,0.00,CLR,,0.00,WeatherDisplay:10.37,2013-05-01 04:25:00,
2013-04-30 23:30:00,65.1,56.6,30.14,SSE,158,0.0,0.0,74,0.00,CLR,,0.00,WeatherDisplay:10.37,2013-05-01 04:30:00,
2013-04-30 23:35:00,65.1,56.2,30.14,SSE,153,0.0,0.0,73,0.00,CLR,,0.00,WeatherDisplay:10.37,2013-05-01 04:35:00,
2013-04-30 23:40:00,65.1,56.2,30.14,SE,146,0.0,0.0,73,0.00,CLR,,0.00,WeatherDisplay:10.37,2013-05-01 04:40:00,
2013-04-30 23:45:00,64.9,56.0,30.14,SE,126,0.0,0.0,73,0.00,CLR,,0.00,WeatherDisplay:10.37,2013-05-01 04:45:00,
2013-04-30 23:50:00,64.8,55.9,30.15,SE,139,0.0,0.0,73,0.00,CLR,,0.00,WeatherDisplay:10.37,2013-05-01 04:50:00,
2013-04-30 23:55:00,64.6,56.1,30.15,South,173,0.0,0.0,74,0.00,CLR,,0.00,WeatherDisplay:10.37,2013-05-01 04:55:00,